sensor_id;sensor_type;location;lat;lon;timestamp;temperature;humidity
38090;DHT22;23904;52.322;10.232;2022-12-16T00:01:17;-4.30;99.90
38090;DHT22;23904;52.322;10.232;2022-12-16T00:03:49;-4.30;99.90
38090;DHT22;23904;52.322;10.232;2022-12-16T00:06:15;-4.30;99.90
38090;DHT22;23904;52.322;10.232;2022-12-16T00:08:42;-4.20;99.90
38090;DHT22;23904;52.322;10.232;2022-12-16T00:11:08;-4.30;99.90
38090;DHT22;23904;52.322;10.232;2022-12-16T00:13:35;-4.30;99.90
38090;DHT22;23904;52.322;10.232;2022-12-16T00:16:06;-4.30;99.90
38090;DHT22;23904;52.322;10.232;2022-12-16T00:18:34;-4.40;99.90
38090;DHT22;23904;52.322;10.232;2022-12-16T00:21:00;-4.40;99.90
38090;DHT22;23904;52.322;10.232;2022-12-16T00:23:26;-4.40;99.90
38090;DHT22;23904;52.322;10.232;2022-12-16T00:25:52;-4.40;99.90
38090;DHT22;23904;52.322;10.232;2022-12-16T00:28:18;-4.30;99.90
38090;DHT22;23904;52.322;10.232;2022-12-16T00:30:48;-4.40;99.90
38090;DHT22;23904;52.322;10.232;2022-12-16T00:33:15;-4.40;99.90
38090;DHT22;23904;52.322;10.232;2022-12-16T00:35:41;-4.50;99.90
38090;DHT22;23904;52.322;10.232;2022-12-16T00:38:07;-4.50;99.90
38090;DHT22;23904;52.322;10.232;2022-12-16T00:40:33;-4.50;99.90
38090;DHT22;23904;52.322;10.232;2022-12-16T00:42:59;-4.50;99.90
38090;DHT22;23904;52.322;10.232;2022-12-16T00:45:25;-4.50;99.90
38090;DHT22;23904;52.322;10.232;2022-12-16T00:47:50;-4.50;99.90
38090;DHT22;23904;52.322;10.232;2022-12-16T00:50:17;-4.50;99.90
38090;DHT22;23904;52.322;10.232;2022-12-16T00:52:43;-4.50;99.90
38090;DHT22;23904;52.322;10.232;2022-12-16T00:55:09;-4.50;99.90
38090;DHT22;23904;52.322;10.232;2022-12-16T00:57:35;-4.50;99.90
38090;DHT22;23904;52.322;10.232;2022-12-16T01:00:00;-4.60;99.90
38090;DHT22;23904;52.322;10.232;2022-12-16T01:02:29;-4.60;99.90
38090;DHT22;23904;52.322;10.232;2022-12-16T01:04:55;-4.60;99.90
38090;DHT22;23904;52.322;10.232;2022-12-16T01:07:21;-4.60;99.90
38090;DHT22;23904;52.322;10.232;2022-12-16T01:09:47;-4.60;99.90
38090;DHT22;23904;52.322;10.232;2022-12-16T01:12:13;-4.70;99.90
38090;DHT22;23904;52.322;10.232;2022-12-16T01:14:39;-4.60;99.90
38090;DHT22;23904;52.322;10.232;2022-12-16T01:17:04;-4.70;99.90
38090;DHT22;23904;52.322;10.232;2022-12-16T01:19:30;-4.70;99.90
38090;DHT22;23904;52.322;10.232;2022-12-16T01:21:56;-4.60;99.90
38090;DHT22;23904;52.322;10.232;2022-12-16T01:24:21;-4.60;99.90
38090;DHT22;23904;52.322;10.232;2022-12-16T01:26:47;-4.70;99.90
38090;DHT22;23904;52.322;10.232;2022-12-16T01:29:13;-4.70;99.90
38090;DHT22;23904;52.322;10.232;2022-12-16T01:31:39;-4.80;99.90
38090;DHT22;23904;52.322;10.232;2022-12-16T01:34:05;-4.80;99.90
38090;DHT22;23904;52.322;10.232;2022-12-16T01:36:30;-4.80;99.90
38090;DHT22;23904;52.322;10.232;2022-12-16T01:38:56;-4.80;99.90
38090;DHT22;23904;52.322;10.232;2022-12-16T01:41:22;-4.80;99.90
38090;DHT22;23904;52.322;10.232;2022-12-16T01:43:47;-4.80;99.90
38090;DHT22;23904;52.322;10.232;2022-12-16T01:51:22;-4.80;99.90
38090;DHT22;23904;52.322;10.232;2022-12-16T01:53:57;-4.80;99.90
38090;DHT22;23904;52.322;10.232;2022-12-16T01:56:26;-4.80;99.90
38090;DHT22;23904;52.322;10.232;2022-12-16T01:58:54;-4.90;99.90
38090;DHT22;23904;52.322;10.232;2022-12-16T02:01:20;-5.00;99.90
38090;DHT22;23904;52.322;10.232;2022-12-16T02:03:46;-5.00;99.90
38090;DHT22;23904;52.322;10.232;2022-12-16T02:06:13;-5.00;99.90
38090;DHT22;23904;52.322;10.232;2022-12-16T02:08:39;-5.00;99.90
38090;DHT22;23904;52.322;10.232;2022-12-16T02:16:51;-5.10;99.90
38090;DHT22;23904;52.322;10.232;2022-12-16T02:29:03;-5.10;99.90
38090;DHT22;23904;52.322;10.232;2022-12-16T02:31:50;-5.10;99.90
38090;DHT22;23904;52.322;10.232;2022-12-16T02:38:23;-5.20;99.90
38090;DHT22;23904;52.322;10.232;2022-12-16T02:41:01;-5.20;99.90
38090;DHT22;23904;52.322;10.232;2022-12-16T02:43:42;-5.20;99.90
38090;DHT22;23904;52.322;10.232;2022-12-16T02:46:29;-5.10;99.90
38090;DHT22;23904;52.322;10.232;2022-12-16T02:51:54;-5.30;99.90
38090;DHT22;23904;52.322;10.232;2022-12-16T02:54:20;-5.30;99.90
38090;DHT22;23904;52.322;10.232;2022-12-16T02:59:56;-5.30;99.90
38090;DHT22;23904;52.322;10.232;2022-12-16T03:02:48;-5.30;99.90
38090;DHT22;23904;52.322;10.232;2022-12-16T03:05:39;-5.30;99.90
38090;DHT22;23904;52.322;10.232;2022-12-16T03:08:11;-5.50;99.90
38090;DHT22;23904;52.322;10.232;2022-12-16T03:10:44;-5.40;99.90
38090;DHT22;23904;52.322;10.232;2022-12-16T03:13:17;-5.40;99.90
38090;DHT22;23904;52.322;10.232;2022-12-16T03:15:45;-5.40;99.90
38090;DHT22;23904;52.322;10.232;2022-12-16T03:18:12;-5.30;99.90
38090;DHT22;23904;52.322;10.232;2022-12-16T03:20:46;-5.30;99.90
38090;DHT22;23904;52.322;10.232;2022-12-16T03:23:19;-5.50;99.90
38090;DHT22;23904;52.322;10.232;2022-12-16T03:25:55;-5.50;99.90
38090;DHT22;23904;52.322;10.232;2022-12-16T03:28:42;-5.50;99.90
38090;DHT22;23904;52.322;10.232;2022-12-16T03:31:35;-5.40;99.90
38090;DHT22;23904;52.322;10.232;2022-12-16T03:37:05;-5.40;99.90
38090;DHT22;23904;52.322;10.232;2022-12-16T03:39:39;-5.50;99.90
38090;DHT22;23904;52.322;10.232;2022-12-16T03:42:07;-5.50;99.90
38090;DHT22;23904;52.322;10.232;2022-12-16T03:44:35;-5.50;99.90
38090;DHT22;23904;52.322;10.232;2022-12-16T03:47:00;-5.50;99.90
38090;DHT22;23904;52.322;10.232;2022-12-16T03:49:26;-5.50;99.90
38090;DHT22;23904;52.322;10.232;2022-12-16T03:51:53;-5.50;99.90
38090;DHT22;23904;52.322;10.232;2022-12-16T03:54:20;-5.50;99.90
38090;DHT22;23904;52.322;10.232;2022-12-16T03:56:46;-5.50;99.90
38090;DHT22;23904;52.322;10.232;2022-12-16T03:59:12;-5.50;99.90
38090;DHT22;23904;52.322;10.232;2022-12-16T04:01:38;-5.50;99.90
38090;DHT22;23904;52.322;10.232;2022-12-16T04:04:04;-5.50;99.90
38090;DHT22;23904;52.322;10.232;2022-12-16T04:06:30;-5.50;99.90
38090;DHT22;23904;52.322;10.232;2022-12-16T04:08:55;-5.50;99.90
38090;DHT22;23904;52.322;10.232;2022-12-16T04:11:21;-5.50;99.90
38090;DHT22;23904;52.322;10.232;2022-12-16T04:14:07;-5.50;99.90
38090;DHT22;23904;52.322;10.232;2022-12-16T04:16:52;-5.70;99.90
38090;DHT22;23904;52.322;10.232;2022-12-16T04:19:37;-5.70;99.90
38090;DHT22;23904;52.322;10.232;2022-12-16T04:22:34;-5.70;99.90
38090;DHT22;23904;52.322;10.232;2022-12-16T04:25:24;-5.60;99.90
38090;DHT22;23904;52.322;10.232;2022-12-16T04:27:53;-5.60;99.90
38090;DHT22;23904;52.322;10.232;2022-12-16T04:30:19;-5.60;99.90
38090;DHT22;23904;52.322;10.232;2022-12-16T04:32:50;-5.50;99.90
38090;DHT22;23904;52.322;10.232;2022-12-16T04:35:36;-5.50;99.90
38090;DHT22;23904;52.322;10.232;2022-12-16T04:38:20;-5.50;99.90
38090;DHT22;23904;52.322;10.232;2022-12-16T04:41:04;-5.50;99.90
38090;DHT22;23904;52.322;10.232;2022-12-16T04:43:49;-5.60;99.90
38090;DHT22;23904;52.322;10.232;2022-12-16T04:46:33;-5.60;99.90
38090;DHT22;23904;52.322;10.232;2022-12-16T04:49:17;-5.70;99.90
38090;DHT22;23904;52.322;10.232;2022-12-16T04:52:01;-5.70;99.90
38090;DHT22;23904;52.322;10.232;2022-12-16T04:54:46;-5.70;99.90
38090;DHT22;23904;52.322;10.232;2022-12-16T04:57:30;-5.60;99.90
38090;DHT22;23904;52.322;10.232;2022-12-16T05:00:14;-5.60;99.90
38090;DHT22;23904;52.322;10.232;2022-12-16T05:02:58;-5.70;99.90
38090;DHT22;23904;52.322;10.232;2022-12-16T05:05:42;-5.70;99.90
38090;DHT22;23904;52.322;10.232;2022-12-16T05:08:26;-5.70;99.90
38090;DHT22;23904;52.322;10.232;2022-12-16T05:11:10;-5.70;99.90
38090;DHT22;23904;52.322;10.232;2022-12-16T05:13:55;-5.80;99.90
38090;DHT22;23904;52.322;10.232;2022-12-16T05:16:39;-5.70;99.90
38090;DHT22;23904;52.322;10.232;2022-12-16T05:19:23;-5.70;99.90
38090;DHT22;23904;52.322;10.232;2022-12-16T05:22:07;-5.70;99.90
38090;DHT22;23904;52.322;10.232;2022-12-16T05:24:51;-5.70;99.90
38090;DHT22;23904;52.322;10.232;2022-12-16T05:27:35;-5.80;99.90
38090;DHT22;23904;52.322;10.232;2022-12-16T05:30:19;-5.80;99.90
38090;DHT22;23904;52.322;10.232;2022-12-16T05:33:05;-5.80;99.90
38090;DHT22;23904;52.322;10.232;2022-12-16T05:35:49;-5.80;99.90
38090;DHT22;23904;52.322;10.232;2022-12-16T05:38:33;-5.80;99.90
38090;DHT22;23904;52.322;10.232;2022-12-16T05:41:17;-5.90;99.90
38090;DHT22;23904;52.322;10.232;2022-12-16T05:44:01;-6.10;99.90
38090;DHT22;23904;52.322;10.232;2022-12-16T05:46:45;-6.10;99.90
38090;DHT22;23904;52.322;10.232;2022-12-16T05:49:29;-6.00;99.90
38090;DHT22;23904;52.322;10.232;2022-12-16T05:52:14;-5.90;99.90
38090;DHT22;23904;52.322;10.232;2022-12-16T05:54:58;-5.90;99.90
38090;DHT22;23904;52.322;10.232;2022-12-16T05:57:42;-5.90;99.90
38090;DHT22;23904;52.322;10.232;2022-12-16T06:00:26;-5.90;99.90
38090;DHT22;23904;52.322;10.232;2022-12-16T06:03:10;-5.90;99.90
38090;DHT22;23904;52.322;10.232;2022-12-16T06:05:54;-5.80;99.90
38090;DHT22;23904;52.322;10.232;2022-12-16T06:08:39;-5.80;99.90
38090;DHT22;23904;52.322;10.232;2022-12-16T06:11:23;-5.80;99.90
38090;DHT22;23904;52.322;10.232;2022-12-16T06:14:07;-5.80;99.90
38090;DHT22;23904;52.322;10.232;2022-12-16T06:16:51;-5.70;99.90
38090;DHT22;23904;52.322;10.232;2022-12-16T06:19:35;-5.70;99.90
38090;DHT22;23904;52.322;10.232;2022-12-16T06:22:19;-5.60;99.90
38090;DHT22;23904;52.322;10.232;2022-12-16T06:25:03;-5.50;99.90
38090;DHT22;23904;52.322;10.232;2022-12-16T06:27:51;-5.40;99.90
38090;DHT22;23904;52.322;10.232;2022-12-16T06:30:37;-5.40;99.90
38090;DHT22;23904;52.322;10.232;2022-12-16T06:33:22;-5.30;99.90
38090;DHT22;23904;52.322;10.232;2022-12-16T06:36:06;-5.20;99.90
38090;DHT22;23904;52.322;10.232;2022-12-16T06:38:51;-5.20;99.90
38090;DHT22;23904;52.322;10.232;2022-12-16T06:41:35;-5.10;99.90
38090;DHT22;23904;52.322;10.232;2022-12-16T06:44:19;-5.10;99.90
38090;DHT22;23904;52.322;10.232;2022-12-16T06:47:03;-5.30;99.90
38090;DHT22;23904;52.322;10.232;2022-12-16T06:49:48;-5.20;99.90
38090;DHT22;23904;52.322;10.232;2022-12-16T06:52:32;-5.10;99.90
38090;DHT22;23904;52.322;10.232;2022-12-16T06:55:16;-5.20;99.90
38090;DHT22;23904;52.322;10.232;2022-12-16T06:57:59;-5.10;99.90
38090;DHT22;23904;52.322;10.232;2022-12-16T07:00:44;-5.00;99.90
38090;DHT22;23904;52.322;10.232;2022-12-16T07:03:29;-5.30;99.90
38090;DHT22;23904;52.322;10.232;2022-12-16T07:06:13;-5.20;99.90
38090;DHT22;23904;52.322;10.232;2022-12-16T07:08:57;-5.30;99.90
38090;DHT22;23904;52.322;10.232;2022-12-16T07:11:41;-5.40;99.90
38090;DHT22;23904;52.322;10.232;2022-12-16T07:14:26;-5.40;99.90
38090;DHT22;23904;52.322;10.232;2022-12-16T07:17:10;-5.30;99.90
38090;DHT22;23904;52.322;10.232;2022-12-16T07:19:54;-5.40;99.90
38090;DHT22;23904;52.322;10.232;2022-12-16T07:22:44;-5.30;99.90
38090;DHT22;23904;52.322;10.232;2022-12-16T07:25:29;-5.20;99.90
38090;DHT22;23904;52.322;10.232;2022-12-16T07:28:13;-5.30;99.90
38090;DHT22;23904;52.322;10.232;2022-12-16T07:30:58;-5.30;99.90
38090;DHT22;23904;52.322;10.232;2022-12-16T07:33:42;-5.20;99.90
38090;DHT22;23904;52.322;10.232;2022-12-16T07:36:26;-5.20;99.90
38090;DHT22;23904;52.322;10.232;2022-12-16T07:39:10;-5.10;99.90
38090;DHT22;23904;52.322;10.232;2022-12-16T07:41:54;-5.10;99.90
38090;DHT22;23904;52.322;10.232;2022-12-16T07:44:38;-5.00;99.90
38090;DHT22;23904;52.322;10.232;2022-12-16T07:47:22;-5.10;99.90
38090;DHT22;23904;52.322;10.232;2022-12-16T07:50:07;-5.10;99.90
38090;DHT22;23904;52.322;10.232;2022-12-16T07:52:55;-5.00;99.90
38090;DHT22;23904;52.322;10.232;2022-12-16T07:55:41;-5.00;99.90
38090;DHT22;23904;52.322;10.232;2022-12-16T07:58:25;-4.90;99.90
38090;DHT22;23904;52.322;10.232;2022-12-16T08:01:09;-4.90;99.90
38090;DHT22;23904;52.322;10.232;2022-12-16T08:03:53;-4.80;99.90
38090;DHT22;23904;52.322;10.232;2022-12-16T08:06:37;-5.00;99.90
38090;DHT22;23904;52.322;10.232;2022-12-16T08:09:23;-4.80;99.90
38090;DHT22;23904;52.322;10.232;2022-12-16T08:12:09;-4.70;99.90
38090;DHT22;23904;52.322;10.232;2022-12-16T08:14:53;-4.80;99.90
38090;DHT22;23904;52.322;10.232;2022-12-16T08:17:37;-4.90;99.90
38090;DHT22;23904;52.322;10.232;2022-12-16T08:20:21;-5.00;99.90
38090;DHT22;23904;52.322;10.232;2022-12-16T08:23:05;-4.80;99.90
38090;DHT22;23904;52.322;10.232;2022-12-16T08:25:49;-4.70;99.90
38090;DHT22;23904;52.322;10.232;2022-12-16T08:28:54;-4.60;99.90
38090;DHT22;23904;52.322;10.232;2022-12-16T08:31:38;-4.40;99.90
38090;DHT22;23904;52.322;10.232;2022-12-16T08:34:24;-4.20;99.90
38090;DHT22;23904;52.322;10.232;2022-12-16T08:37:08;-4.20;99.90
38090;DHT22;23904;52.322;10.232;2022-12-16T08:39:52;-4.10;99.90
38090;DHT22;23904;52.322;10.232;2022-12-16T08:42:36;-4.00;99.90
38090;DHT22;23904;52.322;10.232;2022-12-16T08:45:21;-4.00;99.90
38090;DHT22;23904;52.322;10.232;2022-12-16T08:48:05;-3.90;99.90
38090;DHT22;23904;52.322;10.232;2022-12-16T08:50:50;-3.90;99.90
38090;DHT22;23904;52.322;10.232;2022-12-16T08:53:34;-3.80;99.90
38090;DHT22;23904;52.322;10.232;2022-12-16T08:56:18;-3.70;99.90
38090;DHT22;23904;52.322;10.232;2022-12-16T08:59:02;-3.50;99.90
38090;DHT22;23904;52.322;10.232;2022-12-16T09:01:46;-3.40;99.90
38090;DHT22;23904;52.322;10.232;2022-12-16T09:04:31;-3.40;99.90
38090;DHT22;23904;52.322;10.232;2022-12-16T09:07:15;-3.40;99.90
38090;DHT22;23904;52.322;10.232;2022-12-16T09:10:00;-3.40;99.90
38090;DHT22;23904;52.322;10.232;2022-12-16T09:12:44;-3.50;99.90
38090;DHT22;23904;52.322;10.232;2022-12-16T09:15:28;-3.60;99.90
38090;DHT22;23904;52.322;10.232;2022-12-16T09:18:12;-3.70;99.90
38090;DHT22;23904;52.322;10.232;2022-12-16T09:20:57;-3.50;99.90
38090;DHT22;23904;52.322;10.232;2022-12-16T09:23:42;-3.50;99.90
38090;DHT22;23904;52.322;10.232;2022-12-16T09:26:27;-3.30;99.90
38090;DHT22;23904;52.322;10.232;2022-12-16T09:29:12;-3.10;99.90
38090;DHT22;23904;52.322;10.232;2022-12-16T09:31:56;-3.00;99.90
38090;DHT22;23904;52.322;10.232;2022-12-16T09:34:40;-3.00;99.90
38090;DHT22;23904;52.322;10.232;2022-12-16T09:37:24;-2.80;99.90
38090;DHT22;23904;52.322;10.232;2022-12-16T09:40:13;-2.80;99.90
38090;DHT22;23904;52.322;10.232;2022-12-16T09:49:47;-2.70;99.90
38090;DHT22;23904;52.322;10.232;2022-12-16T09:52:40;-2.50;99.90
38090;DHT22;23904;52.322;10.232;2022-12-16T09:55:31;-2.40;99.90
38090;DHT22;23904;52.322;10.232;2022-12-16T09:58:19;-2.30;99.90
38090;DHT22;23904;52.322;10.232;2022-12-16T10:01:03;-2.50;99.90
38090;DHT22;23904;52.322;10.232;2022-12-16T10:03:48;-2.50;99.90
38090;DHT22;23904;52.322;10.232;2022-12-16T10:09:46;-2.60;99.90
38090;DHT22;23904;52.322;10.232;2022-12-16T10:19:13;-2.30;99.90
38090;DHT22;23904;52.322;10.232;2022-12-16T10:22:11;-2.30;99.90
38090;DHT22;23904;52.322;10.232;2022-12-16T10:31:00;-2.00;99.90
38090;DHT22;23904;52.322;10.232;2022-12-16T10:33:48;-2.00;99.90
38090;DHT22;23904;52.322;10.232;2022-12-16T10:36:35;-2.00;99.90
38090;DHT22;23904;52.322;10.232;2022-12-16T10:39:43;-1.90;99.90
38090;DHT22;23904;52.322;10.232;2022-12-16T10:42:39;-1.90;99.90
38090;DHT22;23904;52.322;10.232;2022-12-16T10:45:49;-1.90;99.90
38090;DHT22;23904;52.322;10.232;2022-12-16T10:48:35;-2.00;99.90
38090;DHT22;23904;52.322;10.232;2022-12-16T10:51:21;-2.00;99.90
38090;DHT22;23904;52.322;10.232;2022-12-16T10:57:17;-1.80;99.90
38090;DHT22;23904;52.322;10.232;2022-12-16T11:00:45;-1.60;99.90
38090;DHT22;23904;52.322;10.232;2022-12-16T11:03:32;-1.50;99.90
38090;DHT22;23904;52.322;10.232;2022-12-16T11:06:25;-1.30;99.90
38090;DHT22;23904;52.322;10.232;2022-12-16T11:09:29;-1.30;99.90
38090;DHT22;23904;52.322;10.232;2022-12-16T11:15:24;-1.10;99.90
38090;DHT22;23904;52.322;10.232;2022-12-16T11:18:21;-1.00;99.90
38090;DHT22;23904;52.322;10.232;2022-12-16T11:21:20;-0.80;99.90
38090;DHT22;23904;52.322;10.232;2022-12-16T11:24:15;-0.80;99.90
38090;DHT22;23904;52.322;10.232;2022-12-16T11:33:19;-0.70;99.90
38090;DHT22;23904;52.322;10.232;2022-12-16T11:36:11;-0.60;99.90
38090;DHT22;23904;52.322;10.232;2022-12-16T11:38:57;-0.60;99.90
38090;DHT22;23904;52.322;10.232;2022-12-16T11:41:44;-0.50;99.90
38090;DHT22;23904;52.322;10.232;2022-12-16T11:44:54;-0.50;99.90
38090;DHT22;23904;52.322;10.232;2022-12-16T11:47:48;-0.40;99.90
38090;DHT22;23904;52.322;10.232;2022-12-16T11:50:39;-0.30;99.90
38090;DHT22;23904;52.322;10.232;2022-12-16T11:53:27;-0.10;99.90
38090;DHT22;23904;52.322;10.232;2022-12-16T11:56:25;0.00;99.90
38090;DHT22;23904;52.322;10.232;2022-12-16T11:59:23;-0.10;99.90
38090;DHT22;23904;52.322;10.232;2022-12-16T12:02:33;-0.10;99.90
38090;DHT22;23904;52.322;10.232;2022-12-16T12:05:40;0.00;99.90
38090;DHT22;23904;52.322;10.232;2022-12-16T12:08:41;0.00;99.90
38090;DHT22;23904;52.322;10.232;2022-12-16T12:12:07;0.00;99.90
38090;DHT22;23904;52.322;10.232;2022-12-16T12:14:58;-0.10;99.90
38090;DHT22;23904;52.322;10.232;2022-12-16T12:18:07;0.00;99.90
38090;DHT22;23904;52.322;10.232;2022-12-16T12:21:04;0.00;99.90
38090;DHT22;23904;52.322;10.232;2022-12-16T12:24:16;0.00;99.90
38090;DHT22;23904;52.322;10.232;2022-12-16T12:30:32;0.10;99.90
38090;DHT22;23904;52.322;10.232;2022-12-16T12:33:49;0.00;99.90
38090;DHT22;23904;52.322;10.232;2022-12-16T12:36:58;0.00;99.90
38090;DHT22;23904;52.322;10.232;2022-12-16T12:39:53;-0.10;99.90
38090;DHT22;23904;52.322;10.232;2022-12-16T12:42:51;-0.10;99.90
38090;DHT22;23904;52.322;10.232;2022-12-16T12:45:46;-0.10;99.90
38090;DHT22;23904;52.322;10.232;2022-12-16T12:49:01;0.00;99.90
38090;DHT22;23904;52.322;10.232;2022-12-16T12:51:56;0.00;99.90
38090;DHT22;23904;52.322;10.232;2022-12-16T12:54:56;0.10;99.90
38090;DHT22;23904;52.322;10.232;2022-12-16T12:57:45;0.10;99.90
38090;DHT22;23904;52.322;10.232;2022-12-16T13:00:34;0.10;99.90
38090;DHT22;23904;52.322;10.232;2022-12-16T13:06:40;0.10;99.90
38090;DHT22;23904;52.322;10.232;2022-12-16T13:09:29;0.00;99.90
38090;DHT22;23904;52.322;10.232;2022-12-16T13:12:20;-0.10;99.90
38090;DHT22;23904;52.322;10.232;2022-12-16T13:15:50;-0.10;99.90
38090;DHT22;23904;52.322;10.232;2022-12-16T13:24:34;-0.10;99.90
38090;DHT22;23904;52.322;10.232;2022-12-16T13:27:23;-0.10;99.90
38090;DHT22;23904;52.322;10.232;2022-12-16T13:33:02;-0.10;99.90
38090;DHT22;23904;52.322;10.232;2022-12-16T13:35:57;-0.20;99.90
38090;DHT22;23904;52.322;10.232;2022-12-16T13:38:48;-0.20;99.90
38090;DHT22;23904;52.322;10.232;2022-12-16T13:50:44;-0.40;99.90
38090;DHT22;23904;52.322;10.232;2022-12-16T13:53:33;-0.40;99.90
38090;DHT22;23904;52.322;10.232;2022-12-16T13:56:38;-0.50;99.90
38090;DHT22;23904;52.322;10.232;2022-12-16T13:59:27;-0.40;99.90
38090;DHT22;23904;52.322;10.232;2022-12-16T14:02:28;-0.40;99.90
38090;DHT22;23904;52.322;10.232;2022-12-16T14:05:22;-0.40;99.90
38090;DHT22;23904;52.322;10.232;2022-12-16T14:08:16;-0.40;99.90
38090;DHT22;23904;52.322;10.232;2022-12-16T14:11:03;-0.50;99.90
38090;DHT22;23904;52.322;10.232;2022-12-16T14:13:59;-0.50;99.90
38090;DHT22;23904;52.322;10.232;2022-12-16T14:16:58;-0.40;99.90
38090;DHT22;23904;52.322;10.232;2022-12-16T14:23:37;-0.40;99.90
38090;DHT22;23904;52.322;10.232;2022-12-16T14:26:25;-0.40;99.90
38090;DHT22;23904;52.322;10.232;2022-12-16T14:29:29;-0.40;99.90
38090;DHT22;23904;52.322;10.232;2022-12-16T14:32:25;-0.50;99.90
38090;DHT22;23904;52.322;10.232;2022-12-16T14:35:22;-0.50;99.90
38090;DHT22;23904;52.322;10.232;2022-12-16T14:38:29;-0.60;99.90
38090;DHT22;23904;52.322;10.232;2022-12-16T14:41:17;-0.60;99.90
38090;DHT22;23904;52.322;10.232;2022-12-16T14:44:21;-0.60;99.90
38090;DHT22;23904;52.322;10.232;2022-12-16T14:47:15;-0.60;99.90
38090;DHT22;23904;52.322;10.232;2022-12-16T14:50:01;-0.60;99.90
38090;DHT22;23904;52.322;10.232;2022-12-16T14:52:46;-0.50;99.90
38090;DHT22;23904;52.322;10.232;2022-12-16T14:55:50;-0.50;99.90
38090;DHT22;23904;52.322;10.232;2022-12-16T14:58:34;-0.50;99.90
38090;DHT22;23904;52.322;10.232;2022-12-16T15:01:20;-0.50;99.90
38090;DHT22;23904;52.322;10.232;2022-12-16T15:04:16;-0.60;99.90
38090;DHT22;23904;52.322;10.232;2022-12-16T15:07:02;-0.60;99.90
38090;DHT22;23904;52.322;10.232;2022-12-16T15:09:50;-0.60;99.90
38090;DHT22;23904;52.322;10.232;2022-12-16T15:12:40;-0.60;99.90
38090;DHT22;23904;52.322;10.232;2022-12-16T15:15:44;-0.60;99.90
38090;DHT22;23904;52.322;10.232;2022-12-16T15:18:49;-0.60;99.90
38090;DHT22;23904;52.322;10.232;2022-12-16T15:21:41;-0.60;99.90
38090;DHT22;23904;52.322;10.232;2022-12-16T15:24:26;-0.50;99.90
38090;DHT22;23904;52.322;10.232;2022-12-16T15:27:23;-0.50;99.90
38090;DHT22;23904;52.322;10.232;2022-12-16T15:30:34;-0.50;99.90
38090;DHT22;23904;52.322;10.232;2022-12-16T15:33:25;-0.50;99.90
38090;DHT22;23904;52.322;10.232;2022-12-16T15:36:30;-0.50;99.90
38090;DHT22;23904;52.322;10.232;2022-12-16T15:39:36;-0.50;99.90
38090;DHT22;23904;52.322;10.232;2022-12-16T15:42:27;-0.50;99.90
38090;DHT22;23904;52.322;10.232;2022-12-16T15:45:23;-0.60;99.90
38090;DHT22;23904;52.322;10.232;2022-12-16T15:48:15;-0.60;99.90
38090;DHT22;23904;52.322;10.232;2022-12-16T15:51:02;-0.60;99.90
38090;DHT22;23904;52.322;10.232;2022-12-16T15:54:00;-0.50;99.90
38090;DHT22;23904;52.322;10.232;2022-12-16T15:56:48;-0.50;99.90
38090;DHT22;23904;52.322;10.232;2022-12-16T15:59:55;-0.60;99.90
38090;DHT22;23904;52.322;10.232;2022-12-16T16:02:46;-0.50;99.90
38090;DHT22;23904;52.322;10.232;2022-12-16T16:05:32;-0.50;99.90
38090;DHT22;23904;52.322;10.232;2022-12-16T16:08:16;-0.50;99.90
38090;DHT22;23904;52.322;10.232;2022-12-16T16:11:00;-0.50;99.90
38090;DHT22;23904;52.322;10.232;2022-12-16T16:13:45;-0.50;99.90
38090;DHT22;23904;52.322;10.232;2022-12-16T16:16:29;-0.60;99.90
38090;DHT22;23904;52.322;10.232;2022-12-16T16:19:23;-0.60;99.90
38090;DHT22;23904;52.322;10.232;2022-12-16T16:22:11;-0.60;99.90
38090;DHT22;23904;52.322;10.232;2022-12-16T16:24:57;-0.60;99.90
38090;DHT22;23904;52.322;10.232;2022-12-16T16:27:41;-0.60;99.90
38090;DHT22;23904;52.322;10.232;2022-12-16T16:30:26;-0.60;99.90
38090;DHT22;23904;52.322;10.232;2022-12-16T16:33:10;-0.50;99.90
38090;DHT22;23904;52.322;10.232;2022-12-16T16:35:54;-0.70;99.90
38090;DHT22;23904;52.322;10.232;2022-12-16T16:38:38;-0.70;99.90
38090;DHT22;23904;52.322;10.232;2022-12-16T16:41:22;-0.60;99.90
38090;DHT22;23904;52.322;10.232;2022-12-16T16:44:06;-0.60;99.90
38090;DHT22;23904;52.322;10.232;2022-12-16T16:46:50;-0.60;99.90
38090;DHT22;23904;52.322;10.232;2022-12-16T16:49:41;-0.50;99.90
38090;DHT22;23904;52.322;10.232;2022-12-16T16:52:27;-0.60;99.90
38090;DHT22;23904;52.322;10.232;2022-12-16T16:58:10;-0.60;99.90
38090;DHT22;23904;52.322;10.232;2022-12-16T17:00:56;-0.50;99.90
38090;DHT22;23904;52.322;10.232;2022-12-16T17:03:40;-0.60;99.90
38090;DHT22;23904;52.322;10.232;2022-12-16T17:06:25;-0.60;99.90
38090;DHT22;23904;52.322;10.232;2022-12-16T17:09:09;-0.60;99.90
38090;DHT22;23904;52.322;10.232;2022-12-16T17:11:53;-0.60;99.90
38090;DHT22;23904;52.322;10.232;2022-12-16T17:14:37;-0.60;99.90
38090;DHT22;23904;52.322;10.232;2022-12-16T17:17:21;-0.70;99.90
38090;DHT22;23904;52.322;10.232;2022-12-16T17:20:07;-0.60;99.90
38090;DHT22;23904;52.322;10.232;2022-12-16T17:22:57;-0.80;99.90
38090;DHT22;23904;52.322;10.232;2022-12-16T17:25:41;-0.80;99.90
38090;DHT22;23904;52.322;10.232;2022-12-16T17:28:25;-0.80;99.90
38090;DHT22;23904;52.322;10.232;2022-12-16T17:31:09;-0.80;99.90
38090;DHT22;23904;52.322;10.232;2022-12-16T17:33:54;-0.80;99.90
38090;DHT22;23904;52.322;10.232;2022-12-16T17:36:38;-0.80;99.90
38090;DHT22;23904;52.322;10.232;2022-12-16T17:39:22;-0.80;99.90
38090;DHT22;23904;52.322;10.232;2022-12-16T17:42:06;-0.90;99.90
38090;DHT22;23904;52.322;10.232;2022-12-16T17:44:50;-0.90;99.90
38090;DHT22;23904;52.322;10.232;2022-12-16T17:47:34;-0.90;99.90
38090;DHT22;23904;52.322;10.232;2022-12-16T17:50:18;-0.90;99.90
38090;DHT22;23904;52.322;10.232;2022-12-16T17:53:02;-0.90;99.90
38090;DHT22;23904;52.322;10.232;2022-12-16T17:55:46;-0.80;99.90
38090;DHT22;23904;52.322;10.232;2022-12-16T17:58:35;-0.80;99.90
38090;DHT22;23904;52.322;10.232;2022-12-16T18:01:21;-0.80;99.90
38090;DHT22;23904;52.322;10.232;2022-12-16T18:04:16;-0.80;99.90
38090;DHT22;23904;52.322;10.232;2022-12-16T18:07:01;-0.80;99.90
38090;DHT22;23904;52.322;10.232;2022-12-16T18:09:45;-0.80;99.90
38090;DHT22;23904;52.322;10.232;2022-12-16T18:12:29;-0.80;99.90
38090;DHT22;23904;52.322;10.232;2022-12-16T18:15:14;-0.80;99.90
38090;DHT22;23904;52.322;10.232;2022-12-16T18:17:59;-0.90;99.90
38090;DHT22;23904;52.322;10.232;2022-12-16T18:20:43;-0.90;99.90
38090;DHT22;23904;52.322;10.232;2022-12-16T18:23:30;-0.90;99.90
38090;DHT22;23904;52.322;10.232;2022-12-16T18:26:15;-0.90;99.90
38090;DHT22;23904;52.322;10.232;2022-12-16T18:29:20;-1.00;99.90
38090;DHT22;23904;52.322;10.232;2022-12-16T18:32:04;-1.00;99.90
38090;DHT22;23904;52.322;10.232;2022-12-16T18:34:49;-1.00;99.90
38090;DHT22;23904;52.322;10.232;2022-12-16T18:37:33;-1.10;99.90
38090;DHT22;23904;52.322;10.232;2022-12-16T18:40:17;-1.10;99.90
38090;DHT22;23904;52.322;10.232;2022-12-16T18:43:01;-1.20;99.90